MRLL weather

Las Lomas Airport
Siquirres, Limon, Costa Rica

Public forecast

Using degrees Celsius for public forecast. Weather courtesy of forecast.io.

Closest aviation weather report (METAR) to Las Lomas Airport

Closest report is Tobias Bolanos International Airport, 33.6 nm (62.1 km) WSW. Retrieved 2020/07/14 21:00 UTC (1 hour ago):

MRPV 142100Z 20002KT 9999 SCT025 BKN200 24/19 A2999 NOSIG

Closest aviation forecast (TAF) to Las Lomas Airport

Closest forecast is Tobias Bolanos International Airport, 33.6 nm (62.1 km) WSW. Retrieved 2020/07/14 18:03 UTC (4 hours ago):

TAF MRPV 141700Z 1418/1518 11011KT FEW035 TX27/1418Z TN19/1510Z TEMPO 1420/1424 28006KT RA SCT030 BKN090